sensor_id;sensor_type;location;lat;lon;timestamp;temperature;humidity
48043;DHT22;33988;47.992;8.820;2023-11-22T00:02:01;14.30;55.10
48043;DHT22;33988;47.992;8.820;2023-11-22T00:04:30;14.30;55.10
48043;DHT22;33988;47.992;8.820;2023-11-22T00:06:57;14.30;55.10
48043;DHT22;33988;47.992;8.820;2023-11-22T00:09:24;14.30;55.20
48043;DHT22;33988;47.992;8.820;2023-11-22T00:11:53;14.30;55.20
48043;DHT22;33988;47.992;8.820;2023-11-22T00:14:20;14.30;55.20
48043;DHT22;33988;47.992;8.820;2023-11-22T00:16:48;14.30;55.20
48043;DHT22;33988;47.992;8.820;2023-11-22T00:19:15;14.30;55.20
48043;DHT22;33988;47.992;8.820;2023-11-22T00:21:46;14.30;55.20
48043;DHT22;33988;47.992;8.820;2023-11-22T00:24:13;14.30;55.20
48043;DHT22;33988;47.992;8.820;2023-11-22T00:26:40;14.30;55.20
48043;DHT22;33988;47.992;8.820;2023-11-22T00:29:08;14.30;55.30
48043;DHT22;33988;47.992;8.820;2023-11-22T00:31:35;14.30;55.30
48043;DHT22;33988;47.992;8.820;2023-11-22T00:34:04;14.30;55.40
48043;DHT22;33988;47.992;8.820;2023-11-22T00:36:33;14.30;55.40
48043;DHT22;33988;47.992;8.820;2023-11-22T00:39:03;14.30;55.40
48043;DHT22;33988;47.992;8.820;2023-11-22T00:41:38;14.30;55.40
48043;DHT22;33988;47.992;8.820;2023-11-22T00:44:05;14.30;55.40
48043;DHT22;33988;47.992;8.820;2023-11-22T00:46:33;14.30;55.40
48043;DHT22;33988;47.992;8.820;2023-11-22T00:49:02;14.30;55.40
48043;DHT22;33988;47.992;8.820;2023-11-22T00:51:31;14.30;55.50
48043;DHT22;33988;47.992;8.820;2023-11-22T00:53:59;14.30;55.50
48043;DHT22;33988;47.992;8.820;2023-11-22T00:56:26;14.30;55.50
48043;DHT22;33988;47.992;8.820;2023-11-22T00:58:56;14.30;55.50
48043;DHT22;33988;47.992;8.820;2023-11-22T01:01:26;14.30;55.50
48043;DHT22;33988;47.992;8.820;2023-11-22T01:03:55;14.30;55.50
48043;DHT22;33988;47.992;8.820;2023-11-22T01:06:25;14.30;55.50
48043;DHT22;33988;47.992;8.820;2023-11-22T01:08:54;14.30;55.50
48043;DHT22;33988;47.992;8.820;2023-11-22T01:11:21;14.20;55.40
48043;DHT22;33988;47.992;8.820;2023-11-22T01:13:51;14.20;55.40
48043;DHT22;33988;47.992;8.820;2023-11-22T01:16:18;14.20;55.40
48043;DHT22;33988;47.992;8.820;2023-11-22T01:18:45;14.20;55.50
48043;DHT22;33988;47.992;8.820;2023-11-22T01:21:13;14.20;55.50
48043;DHT22;33988;47.992;8.820;2023-11-22T01:23:45;14.20;55.50
48043;DHT22;33988;47.992;8.820;2023-11-22T01:26:19;14.20;55.50
48043;DHT22;33988;47.992;8.820;2023-11-22T01:28:53;14.20;55.50
48043;DHT22;33988;47.992;8.820;2023-11-22T01:31:30;14.20;55.50
48043;DHT22;33988;47.992;8.820;2023-11-22T01:34:03;14.20;55.50
48043;DHT22;33988;47.992;8.820;2023-11-22T01:36:43;14.20;56.10
48043;DHT22;33988;47.992;8.820;2023-11-22T01:39:16;14.20;55.50
48043;DHT22;33988;47.992;8.820;2023-11-22T01:41:53;14.20;55.50
48043;DHT22;33988;47.992;8.820;2023-11-22T01:44:26;14.20;55.40
48043;DHT22;33988;47.992;8.820;2023-11-22T01:47:01;14.20;56.10
48043;DHT22;33988;47.992;8.820;2023-11-22T01:49:35;14.20;55.40
48043;DHT22;33988;47.992;8.820;2023-11-22T01:52:08;14.20;55.40
48043;DHT22;33988;47.992;8.820;2023-11-22T01:54:46;14.20;55.40
48043;DHT22;33988;47.992;8.820;2023-11-22T01:57:25;14.20;55.40
48043;DHT22;33988;47.992;8.820;2023-11-22T02:00:06;14.20;55.40
48043;DHT22;33988;47.992;8.820;2023-11-22T02:02:46;14.20;55.40
48043;DHT22;33988;47.992;8.820;2023-11-22T02:05:21;14.20;55.40
48043;DHT22;33988;47.992;8.820;2023-11-22T02:07:58;14.20;55.40
48043;DHT22;33988;47.992;8.820;2023-11-22T02:10:32;14.20;55.40
48043;DHT22;33988;47.992;8.820;2023-11-22T02:13:07;14.20;55.40
48043;DHT22;33988;47.992;8.820;2023-11-22T02:15:41;14.20;55.50
48043;DHT22;33988;47.992;8.820;2023-11-22T02:18:15;14.20;55.40
48043;DHT22;33988;47.992;8.820;2023-11-22T02:20:48;14.20;55.40
48043;DHT22;33988;47.992;8.820;2023-11-22T02:23:22;14.20;55.40
48043;DHT22;33988;47.992;8.820;2023-11-22T02:26:00;14.20;55.40
48043;DHT22;33988;47.992;8.820;2023-11-22T02:28:35;14.20;55.40
48043;DHT22;33988;47.992;8.820;2023-11-22T02:31:11;14.20;55.40
48043;DHT22;33988;47.992;8.820;2023-11-22T02:33:46;14.20;55.40
48043;DHT22;33988;47.992;8.820;2023-11-22T02:36:13;14.20;55.40
48043;DHT22;33988;47.992;8.820;2023-11-22T02:38:43;14.20;55.40
48043;DHT22;33988;47.992;8.820;2023-11-22T02:41:19;14.20;55.40
48043;DHT22;33988;47.992;8.820;2023-11-22T02:43:56;14.30;55.40
48043;DHT22;33988;47.992;8.820;2023-11-22T02:46:24;14.20;55.30
48043;DHT22;33988;47.992;8.820;2023-11-22T02:48:52;14.20;55.40
48043;DHT22;33988;47.992;8.820;2023-11-22T02:51:27;14.30;55.40
48043;DHT22;33988;47.992;8.820;2023-11-22T02:54:03;14.20;55.40
48043;DHT22;33988;47.992;8.820;2023-11-22T02:56:40;14.30;55.50
48043;DHT22;33988;47.992;8.820;2023-11-22T02:59:16;14.20;55.30
48043;DHT22;33988;47.992;8.820;2023-11-22T03:01:51;14.20;55.40
48043;DHT22;33988;47.992;8.820;2023-11-22T03:04:25;14.20;55.30
48043;DHT22;33988;47.992;8.820;2023-11-22T03:07:01;14.20;55.40
48043;DHT22;33988;47.992;8.820;2023-11-22T03:09:37;14.20;55.40
48043;DHT22;33988;47.992;8.820;2023-11-22T03:12:07;14.20;55.40
48043;DHT22;33988;47.992;8.820;2023-11-22T03:14:35;14.20;55.40
48043;DHT22;33988;47.992;8.820;2023-11-22T03:17:03;14.20;55.40
48043;DHT22;33988;47.992;8.820;2023-11-22T03:19:32;14.20;55.40
48043;DHT22;33988;47.992;8.820;2023-11-22T03:22:01;14.30;55.40
48043;DHT22;33988;47.992;8.820;2023-11-22T03:24:31;14.20;55.30
48043;DHT22;33988;47.992;8.820;2023-11-22T03:27:01;14.20;55.40
48043;DHT22;33988;47.992;8.820;2023-11-22T03:29:30;14.30;55.40
48043;DHT22;33988;47.992;8.820;2023-11-22T03:31:57;14.20;55.40
48043;DHT22;33988;47.992;8.820;2023-11-22T03:34:27;14.20;55.30
48043;DHT22;33988;47.992;8.820;2023-11-22T03:36:56;14.20;55.30
48043;DHT22;33988;47.992;8.820;2023-11-22T03:39:24;14.20;55.20
48043;DHT22;33988;47.992;8.820;2023-11-22T03:41:51;14.20;55.20
48043;DHT22;33988;47.992;8.820;2023-11-22T03:44:18;14.20;55.10
48043;DHT22;33988;47.992;8.820;2023-11-22T03:46:45;14.20;55.10
48043;DHT22;33988;47.992;8.820;2023-11-22T03:49:12;14.10;55.00
48043;DHT22;33988;47.992;8.820;2023-11-22T03:51:42;14.10;55.00
48043;DHT22;33988;47.992;8.820;2023-11-22T03:54:09;14.00;55.00
48043;DHT22;33988;47.992;8.820;2023-11-22T03:56:40;14.00;55.00
48043;DHT22;33988;47.992;8.820;2023-11-22T03:59:07;14.00;55.00
48043;DHT22;33988;47.992;8.820;2023-11-22T04:01:34;14.00;55.00
48043;DHT22;33988;47.992;8.820;2023-11-22T04:04:03;14.00;55.00
48043;DHT22;33988;47.992;8.820;2023-11-22T04:06:31;14.00;55.00
48043;DHT22;33988;47.992;8.820;2023-11-22T04:09:00;13.90;55.00
48043;DHT22;33988;47.992;8.820;2023-11-22T04:11:28;13.90;55.00
48043;DHT22;33988;47.992;8.820;2023-11-22T04:14:00;13.90;54.90
48043;DHT22;33988;47.992;8.820;2023-11-22T04:16:32;13.90;54.80
48043;DHT22;33988;47.992;8.820;2023-11-22T04:19:00;13.90;54.80
48043;DHT22;33988;47.992;8.820;2023-11-22T04:21:27;13.90;54.80
48043;DHT22;33988;47.992;8.820;2023-11-22T04:23:54;13.80;54.70
48043;DHT22;33988;47.992;8.820;2023-11-22T04:26:21;13.90;54.70
48043;DHT22;33988;47.992;8.820;2023-11-22T04:28:48;13.80;54.70
48043;DHT22;33988;47.992;8.820;2023-11-22T04:31:18;13.80;54.80
48043;DHT22;33988;47.992;8.820;2023-11-22T04:33:45;13.80;54.70
48043;DHT22;33988;47.992;8.820;2023-11-22T04:36:17;13.80;54.70
48043;DHT22;33988;47.992;8.820;2023-11-22T04:38:45;13.80;54.70
48043;DHT22;33988;47.992;8.820;2023-11-22T04:41:15;13.70;54.60
48043;DHT22;33988;47.992;8.820;2023-11-22T04:43:45;13.70;54.60
48043;DHT22;33988;47.992;8.820;2023-11-22T04:46:12;13.70;54.60
48043;DHT22;33988;47.992;8.820;2023-11-22T04:48:41;13.70;54.50
48043;DHT22;33988;47.992;8.820;2023-11-22T04:51:11;13.70;54.50
48043;DHT22;33988;47.992;8.820;2023-11-22T04:53:38;13.70;54.50
48043;DHT22;33988;47.992;8.820;2023-11-22T04:56:06;13.70;54.50
48043;DHT22;33988;47.992;8.820;2023-11-22T04:58:33;13.60;54.40
48043;DHT22;33988;47.992;8.820;2023-11-22T05:01:01;13.60;54.40
48043;DHT22;33988;47.992;8.820;2023-11-22T05:03:28;13.60;54.40
48043;DHT22;33988;47.992;8.820;2023-11-22T05:05:55;13.60;54.30
48043;DHT22;33988;47.992;8.820;2023-11-22T05:08:22;13.50;54.90
48043;DHT22;33988;47.992;8.820;2023-11-22T05:10:54;13.50;54.20
48043;DHT22;33988;47.992;8.820;2023-11-22T05:13:22;13.50;54.20
48043;DHT22;33988;47.992;8.820;2023-11-22T05:15:52;13.50;54.20
48043;DHT22;33988;47.992;8.820;2023-11-22T05:18:19;13.40;54.10
48043;DHT22;33988;47.992;8.820;2023-11-22T05:20:50;13.40;54.10
48043;DHT22;33988;47.992;8.820;2023-11-22T05:23:17;13.40;54.00
48043;DHT22;33988;47.992;8.820;2023-11-22T05:25:44;13.30;54.00
48043;DHT22;33988;47.992;8.820;2023-11-22T05:28:12;13.20;53.90
48043;DHT22;33988;47.992;8.820;2023-11-22T05:30:39;13.20;53.90
48043;DHT22;33988;47.992;8.820;2023-11-22T05:33:07;13.10;53.80
48043;DHT22;33988;47.992;8.820;2023-11-22T05:35:36;13.10;53.70
48043;DHT22;33988;47.992;8.820;2023-11-22T05:38:06;13.00;53.60
48043;DHT22;33988;47.992;8.820;2023-11-22T05:40:33;12.90;53.60
48043;DHT22;33988;47.992;8.820;2023-11-22T05:43:00;12.90;53.70
48043;DHT22;33988;47.992;8.820;2023-11-22T05:45:31;12.80;53.80
48043;DHT22;33988;47.992;8.820;2023-11-22T05:48:00;12.80;53.80
48043;DHT22;33988;47.992;8.820;2023-11-22T05:50:28;12.80;53.90
48043;DHT22;33988;47.992;8.820;2023-11-22T05:52:55;12.80;53.90
48043;DHT22;33988;47.992;8.820;2023-11-22T05:55:22;12.80;53.90
48043;DHT22;33988;47.992;8.820;2023-11-22T05:57:51;12.70;53.90
48043;DHT22;33988;47.992;8.820;2023-11-22T06:00:18;12.70;53.90
48043;DHT22;33988;47.992;8.820;2023-11-22T06:02:47;12.70;53.90
48043;DHT22;33988;47.992;8.820;2023-11-22T06:05:16;12.70;53.90
48043;DHT22;33988;47.992;8.820;2023-11-22T06:07:44;12.70;53.90
48043;DHT22;33988;47.992;8.820;2023-11-22T06:10:10;12.70;53.80
48043;DHT22;33988;47.992;8.820;2023-11-22T06:12:40;12.70;53.80
48043;DHT22;33988;47.992;8.820;2023-11-22T06:15:07;12.70;53.70
48043;DHT22;33988;47.992;8.820;2023-11-22T06:17:35;12.70;53.70
48043;DHT22;33988;47.992;8.820;2023-11-22T06:20:02;12.70;53.70
48043;DHT22;33988;47.992;8.820;2023-11-22T06:22:30;12.70;53.70
48043;DHT22;33988;47.992;8.820;2023-11-22T06:24:57;12.70;53.70
48043;DHT22;33988;47.992;8.820;2023-11-22T06:27:24;12.70;53.70
48043;DHT22;33988;47.992;8.820;2023-11-22T06:29:53;12.70;53.60
48043;DHT22;33988;47.992;8.820;2023-11-22T06:32:22;12.70;53.60
48043;DHT22;33988;47.992;8.820;2023-11-22T06:34:52;12.60;53.50
48043;DHT22;33988;47.992;8.820;2023-11-22T06:37:19;12.60;53.50
48043;DHT22;33988;47.992;8.820;2023-11-22T06:39:47;12.60;53.50
48043;DHT22;33988;47.992;8.820;2023-11-22T06:42:17;12.60;53.40
48043;DHT22;33988;47.992;8.820;2023-11-22T06:44:46;12.60;53.50
48043;DHT22;33988;47.992;8.820;2023-11-22T06:47:16;12.60;53.80
48043;DHT22;33988;47.992;8.820;2023-11-22T06:49:43;12.60;53.30
48043;DHT22;33988;47.992;8.820;2023-11-22T06:52:18;12.50;53.10
48043;DHT22;33988;47.992;8.820;2023-11-22T06:54:45;12.50;53.00
48043;DHT22;33988;47.992;8.820;2023-11-22T06:57:15;12.50;53.00
48043;DHT22;33988;47.992;8.820;2023-11-22T06:59:42;12.40;52.80
48043;DHT22;33988;47.992;8.820;2023-11-22T07:02:09;12.40;52.90
48043;DHT22;33988;47.992;8.820;2023-11-22T07:04:36;12.40;52.90
48043;DHT22;33988;47.992;8.820;2023-11-22T07:07:06;12.40;52.90
48043;DHT22;33988;47.992;8.820;2023-11-22T07:09:41;12.40;52.90
48043;DHT22;33988;47.992;8.820;2023-11-22T07:12:08;12.30;52.90
48043;DHT22;33988;47.992;8.820;2023-11-22T07:14:38;12.30;53.00
48043;DHT22;33988;47.992;8.820;2023-11-22T07:17:07;12.30;53.00
48043;DHT22;33988;47.992;8.820;2023-11-22T07:19:34;12.30;52.90
48043;DHT22;33988;47.992;8.820;2023-11-22T07:22:05;12.30;52.90
48043;DHT22;33988;47.992;8.820;2023-11-22T07:24:45;12.30;52.90
48043;DHT22;33988;47.992;8.820;2023-11-22T07:27:14;12.30;52.90
48043;DHT22;33988;47.992;8.820;2023-11-22T07:29:47;12.20;52.90
48043;DHT22;33988;47.992;8.820;2023-11-22T07:32:16;12.20;52.80
48043;DHT22;33988;47.992;8.820;2023-11-22T07:34:47;12.20;52.80
48043;DHT22;33988;47.992;8.820;2023-11-22T07:37:22;12.20;52.80
48043;DHT22;33988;47.992;8.820;2023-11-22T07:39:50;12.20;53.50
48043;DHT22;33988;47.992;8.820;2023-11-22T07:42:18;12.20;52.80
48043;DHT22;33988;47.992;8.820;2023-11-22T07:44:45;12.10;52.80
48043;DHT22;33988;47.992;8.820;2023-11-22T07:47:13;12.10;52.80
48043;DHT22;33988;47.992;8.820;2023-11-22T07:49:40;12.10;52.80
48043;DHT22;33988;47.992;8.820;2023-11-22T07:52:09;12.10;52.70
48043;DHT22;33988;47.992;8.820;2023-11-22T07:54:40;12.10;52.80
48043;DHT22;33988;47.992;8.820;2023-11-22T07:57:11;12.00;52.70
48043;DHT22;33988;47.992;8.820;2023-11-22T07:59:40;12.00;52.70
48043;DHT22;33988;47.992;8.820;2023-11-22T08:02:08;12.00;52.60
48043;DHT22;33988;47.992;8.820;2023-11-22T08:04:38;12.00;52.60
48043;DHT22;33988;47.992;8.820;2023-11-22T08:07:07;11.90;52.60
48043;DHT22;33988;47.992;8.820;2023-11-22T08:09:37;11.90;52.70
48043;DHT22;33988;47.992;8.820;2023-11-22T08:12:06;11.90;52.70
48043;DHT22;33988;47.992;8.820;2023-11-22T08:14:33;11.70;52.80
48043;DHT22;33988;47.992;8.820;2023-11-22T08:17:04;11.80;52.80
48043;DHT22;33988;47.992;8.820;2023-11-22T08:19:32;11.90;52.70
48043;DHT22;33988;47.992;8.820;2023-11-22T08:22:00;11.80;52.70
48043;DHT22;33988;47.992;8.820;2023-11-22T08:24:30;11.80;52.60
48043;DHT22;33988;47.992;8.820;2023-11-22T08:26:59;11.80;52.60
48043;DHT22;33988;47.992;8.820;2023-11-22T08:29:27;11.80;52.60
48043;DHT22;33988;47.992;8.820;2023-11-22T08:31:53;11.80;52.50
48043;DHT22;33988;47.992;8.820;2023-11-22T08:34:20;11.80;52.50
48043;DHT22;33988;47.992;8.820;2023-11-22T08:36:50;11.80;52.50
48043;DHT22;33988;47.992;8.820;2023-11-22T08:39:17;11.80;52.50
48043;DHT22;33988;47.992;8.820;2023-11-22T08:41:44;11.80;52.50
48043;DHT22;33988;47.992;8.820;2023-11-22T08:44:18;11.80;52.50
48043;DHT22;33988;47.992;8.820;2023-11-22T08:46:46;11.80;52.50
48043;DHT22;33988;47.992;8.820;2023-11-22T08:49:16;11.80;52.50
48043;DHT22;33988;47.992;8.820;2023-11-22T08:51:43;11.80;52.40
48043;DHT22;33988;47.992;8.820;2023-11-22T08:54:13;11.90;52.50
48043;DHT22;33988;47.992;8.820;2023-11-22T08:56:46;11.90;52.50
48043;DHT22;33988;47.992;8.820;2023-11-22T08:59:15;11.90;52.40
48043;DHT22;33988;47.992;8.820;2023-11-22T09:01:44;11.70;52.40
48043;DHT22;33988;47.992;8.820;2023-11-22T09:04:14;11.90;52.50
48043;DHT22;33988;47.992;8.820;2023-11-22T09:06:42;11.90;52.30
48043;DHT22;33988;47.992;8.820;2023-11-22T09:09:12;11.90;52.20
48043;DHT22;33988;47.992;8.820;2023-11-22T09:11:42;11.90;52.20
48043;DHT22;33988;47.992;8.820;2023-11-22T09:14:09;11.90;52.10
48043;DHT22;33988;47.992;8.820;2023-11-22T09:16:37;11.90;52.10
48043;DHT22;33988;47.992;8.820;2023-11-22T09:19:06;11.90;52.10
48043;DHT22;33988;47.992;8.820;2023-11-22T09:21:35;11.90;52.00
48043;DHT22;33988;47.992;8.820;2023-11-22T09:24:05;11.90;52.00
48043;DHT22;33988;47.992;8.820;2023-11-22T09:26:33;11.90;51.90
48043;DHT22;33988;47.992;8.820;2023-11-22T09:29:02;11.90;51.80
48043;DHT22;33988;47.992;8.820;2023-11-22T09:31:30;11.90;51.80
48043;DHT22;33988;47.992;8.820;2023-11-22T09:33:59;11.90;51.80
48043;DHT22;33988;47.992;8.820;2023-11-22T09:36:27;11.90;51.70
48043;DHT22;33988;47.992;8.820;2023-11-22T09:38:56;11.90;51.80
48043;DHT22;33988;47.992;8.820;2023-11-22T09:41:26;11.90;51.70
48043;DHT22;33988;47.992;8.820;2023-11-22T09:43:55;11.90;51.60
48043;DHT22;33988;47.992;8.820;2023-11-22T09:46:22;11.90;51.60
48043;DHT22;33988;47.992;8.820;2023-11-22T09:48:51;11.90;51.60
48043;DHT22;33988;47.992;8.820;2023-11-22T09:51:32;11.90;51.50
48043;DHT22;33988;47.992;8.820;2023-11-22T09:54:04;11.90;51.40
48043;DHT22;33988;47.992;8.820;2023-11-22T09:56:36;11.90;51.50
48043;DHT22;33988;47.992;8.820;2023-11-22T09:59:04;11.90;51.50
48043;DHT22;33988;47.992;8.820;2023-11-22T10:01:35;11.90;51.50
48043;DHT22;33988;47.992;8.820;2023-11-22T10:04:05;11.90;51.50
48043;DHT22;33988;47.992;8.820;2023-11-22T10:06:33;11.90;51.50
48043;DHT22;33988;47.992;8.820;2023-11-22T10:09:03;11.80;51.40
48043;DHT22;33988;47.992;8.820;2023-11-22T10:11:41;11.90;51.50
48043;DHT22;33988;47.992;8.820;2023-11-22T10:14:11;11.80;51.50
48043;DHT22;33988;47.992;8.820;2023-11-22T10:16:38;11.80;51.60
48043;DHT22;33988;47.992;8.820;2023-11-22T10:19:05;11.80;51.50
48043;DHT22;33988;47.992;8.820;2023-11-22T10:21:35;11.80;51.50
48043;DHT22;33988;47.992;8.820;2023-11-22T10:24:06;11.80;51.50
48043;DHT22;33988;47.992;8.820;2023-11-22T10:26:36;11.80;51.50
48043;DHT22;33988;47.992;8.820;2023-11-22T10:29:03;11.80;51.50
48043;DHT22;33988;47.992;8.820;2023-11-22T10:31:35;11.80;51.50
48043;DHT22;33988;47.992;8.820;2023-11-22T10:34:05;11.80;51.60
48043;DHT22;33988;47.992;8.820;2023-11-22T10:36:35;11.80;51.50
48043;DHT22;33988;47.992;8.820;2023-11-22T10:39:10;11.80;51.40
48043;DHT22;33988;47.992;8.820;2023-11-22T10:41:45;11.80;51.40
48043;DHT22;33988;47.992;8.820;2023-11-22T10:44:12;11.90;51.40
48043;DHT22;33988;47.992;8.820;2023-11-22T10:46:42;11.90;51.40
48043;DHT22;33988;47.992;8.820;2023-11-22T10:49:12;11.90;51.40
48043;DHT22;33988;47.992;8.820;2023-11-22T10:51:41;11.80;51.30
48043;DHT22;33988;47.992;8.820;2023-11-22T10:54:12;11.90;51.40
48043;DHT22;33988;47.992;8.820;2023-11-22T10:56:42;11.90;51.30
48043;DHT22;33988;47.992;8.820;2023-11-22T10:59:13;11.80;51.20
48043;DHT22;33988;47.992;8.820;2023-11-22T11:01:47;11.70;51.30
48043;DHT22;33988;47.992;8.820;2023-11-22T11:04:29;11.80;51.30
48043;DHT22;33988;47.992;8.820;2023-11-22T11:07:02;11.80;51.20
48043;DHT22;33988;47.992;8.820;2023-11-22T11:09:35;11.80;51.20
48043;DHT22;33988;47.992;8.820;2023-11-22T11:12:04;11.80;51.20
48043;DHT22;33988;47.992;8.820;2023-11-22T11:14:37;11.80;51.20
48043;DHT22;33988;47.992;8.820;2023-11-22T11:17:05;11.80;51.20
48043;DHT22;33988;47.992;8.820;2023-11-22T11:19:33;11.80;51.20
48043;DHT22;33988;47.992;8.820;2023-11-22T11:22:01;11.80;51.20
48043;DHT22;33988;47.992;8.820;2023-11-22T11:24:28;11.80;51.20
48043;DHT22;33988;47.992;8.820;2023-11-22T11:26:55;11.80;51.30
48043;DHT22;33988;47.992;8.820;2023-11-22T11:29:32;11.80;51.30
48043;DHT22;33988;47.992;8.820;2023-11-22T11:32:03;11.80;51.20
48043;DHT22;33988;47.992;8.820;2023-11-22T11:34:46;11.60;51.30
48043;DHT22;33988;47.992;8.820;2023-11-22T11:37:19;11.70;51.40
48043;DHT22;33988;47.992;8.820;2023-11-22T11:39:47;11.80;51.30
48043;DHT22;33988;47.992;8.820;2023-11-22T11:42:16;11.80;51.20
48043;DHT22;33988;47.992;8.820;2023-11-22T11:47:30;11.70;51.10
48043;DHT22;33988;47.992;8.820;2023-11-22T11:49:57;11.80;51.20
48043;DHT22;33988;47.992;8.820;2023-11-22T11:52:30;11.80;51.10
48043;DHT22;33988;47.992;8.820;2023-11-22T11:55:02;11.80;51.20
48043;DHT22;33988;47.992;8.820;2023-11-22T11:57:35;11.80;51.10
48043;DHT22;33988;47.992;8.820;2023-11-22T12:00:04;11.80;51.10
48043;DHT22;33988;47.992;8.820;2023-11-22T12:02:32;11.80;51.10
48043;DHT22;33988;47.992;8.820;2023-11-22T12:05:02;11.80;51.10
48043;DHT22;33988;47.992;8.820;2023-11-22T12:07:36;11.80;51.00
48043;DHT22;33988;47.992;8.820;2023-11-22T12:10:09;11.80;51.00
48043;DHT22;33988;47.992;8.820;2023-11-22T12:12:36;11.80;50.90
48043;DHT22;33988;47.992;8.820;2023-11-22T12:15:07;11.80;51.60
48043;DHT22;33988;47.992;8.820;2023-11-22T12:17:36;11.80;50.90
48043;DHT22;33988;47.992;8.820;2023-11-22T12:20:13;11.80;50.90
48043;DHT22;33988;47.992;8.820;2023-11-22T12:22:45;11.80;50.80
48043;DHT22;33988;47.992;8.820;2023-11-22T12:25:13;11.70;50.90
48043;DHT22;33988;47.992;8.820;2023-11-22T12:27:42;11.80;50.90
48043;DHT22;33988;47.992;8.820;2023-11-22T12:30:28;11.80;50.90
48043;DHT22;33988;47.992;8.820;2023-11-22T12:33:06;11.70;50.80
48043;DHT22;33988;47.992;8.820;2023-11-22T12:35:36;11.70;50.80
48043;DHT22;33988;47.992;8.820;2023-11-22T12:38:05;11.70;50.90
48043;DHT22;33988;47.992;8.820;2023-11-22T12:40:35;11.80;50.90
48043;DHT22;33988;47.992;8.820;2023-11-22T12:43:03;11.70;50.90
48043;DHT22;33988;47.992;8.820;2023-11-22T12:45:31;11.70;50.90
48043;DHT22;33988;47.992;8.820;2023-11-22T12:48:23;11.70;50.90
48043;DHT22;33988;47.992;8.820;2023-11-22T12:50:55;11.70;50.80
48043;DHT22;33988;47.992;8.820;2023-11-22T12:53:23;11.70;50.90
48043;DHT22;33988;47.992;8.820;2023-11-22T12:55:55;11.70;51.60
48043;DHT22;33988;47.992;8.820;2023-11-22T12:58:25;11.70;50.90
48043;DHT22;33988;47.992;8.820;2023-11-22T13:00:55;11.70;50.90
48043;DHT22;33988;47.992;8.820;2023-11-22T13:03:27;11.70;50.90
48043;DHT22;33988;47.992;8.820;2023-11-22T13:05:55;11.70;50.90
48043;DHT22;33988;47.992;8.820;2023-11-22T13:08:22;11.70;50.90
48043;DHT22;33988;47.992;8.820;2023-11-22T13:10:53;11.70;50.80
48043;DHT22;33988;47.992;8.820;2023-11-22T13:13:25;11.60;50.80
48043;DHT22;33988;47.992;8.820;2023-11-22T13:15:54;11.70;51.00
48043;DHT22;33988;47.992;8.820;2023-11-22T13:18:22;11.70;51.00
48043;DHT22;33988;47.992;8.820;2023-11-22T13:20:49;11.60;50.90
48043;DHT22;33988;47.992;8.820;2023-11-22T13:23:17;11.60;50.80
48043;DHT22;33988;47.992;8.820;2023-11-22T13:25:45;11.70;51.40
48043;DHT22;33988;47.992;8.820;2023-11-22T13:28:13;11.60;50.70
48043;DHT22;33988;47.992;8.820;2023-11-22T13:30:48;11.60;50.80
48043;DHT22;33988;47.992;8.820;2023-11-22T13:33:15;11.60;50.80
48043;DHT22;33988;47.992;8.820;2023-11-22T13:35:42;11.60;50.80
48043;DHT22;33988;47.992;8.820;2023-11-22T13:38:11;11.60;50.80
48043;DHT22;33988;47.992;8.820;2023-11-22T13:40:41;11.60;50.80
48043;DHT22;33988;47.992;8.820;2023-11-22T13:43:12;11.60;50.80
48043;DHT22;33988;47.992;8.820;2023-11-22T13:45:40;11.50;50.80
48043;DHT22;33988;47.992;8.820;2023-11-22T13:48:08;11.60;50.90
48043;DHT22;33988;47.992;8.820;2023-11-22T13:50:38;11.60;50.90
48043;DHT22;33988;47.992;8.820;2023-11-22T13:53:08;11.60;50.90
48043;DHT22;33988;47.992;8.820;2023-11-22T13:55:37;11.60;50.90
48043;DHT22;33988;47.992;8.820;2023-11-22T13:58:05;11.60;50.90
48043;DHT22;33988;47.992;8.820;2023-11-22T14:00:32;11.60;50.90
48043;DHT22;33988;47.992;8.820;2023-11-22T14:03:01;11.60;50.90
48043;DHT22;33988;47.992;8.820;2023-11-22T14:05:35;11.60;50.90
48043;DHT22;33988;47.992;8.820;2023-11-22T14:08:05;11.60;50.90
48043;DHT22;33988;47.992;8.820;2023-11-22T14:10:33;11.60;50.90
48043;DHT22;33988;47.992;8.820;2023-11-22T14:13:00;11.60;50.90
48043;DHT22;33988;47.992;8.820;2023-11-22T14:15:32;11.60;50.90
48043;DHT22;33988;47.992;8.820;2023-11-22T14:18:02;11.60;50.90
48043;DHT22;33988;47.992;8.820;2023-11-22T14:20:30;11.60;51.50
48043;DHT22;33988;47.992;8.820;2023-11-22T14:23:01;11.60;50.80
48043;DHT22;33988;47.992;8.820;2023-11-22T14:25:28;11.40;50.90
48043;DHT22;33988;47.992;8.820;2023-11-22T14:27:58;11.50;50.90
48043;DHT22;33988;47.992;8.820;2023-11-22T14:30:26;11.60;50.90
48043;DHT22;33988;47.992;8.820;2023-11-22T14:32:56;11.60;50.90
48043;DHT22;33988;47.992;8.820;2023-11-22T14:35:25;11.60;50.80
48043;DHT22;33988;47.992;8.820;2023-11-22T14:37:53;11.50;50.80
48043;DHT22;33988;47.992;8.820;2023-11-22T14:40:25;11.50;50.80
48043;DHT22;33988;47.992;8.820;2023-11-22T14:42:54;11.50;50.80
48043;DHT22;33988;47.992;8.820;2023-11-22T14:45:21;11.50;50.80
48043;DHT22;33988;47.992;8.820;2023-11-22T14:47:48;11.50;50.80
48043;DHT22;33988;47.992;8.820;2023-11-22T14:50:17;11.50;50.90
48043;DHT22;33988;47.992;8.820;2023-11-22T14:52:48;11.50;50.90
48043;DHT22;33988;47.992;8.820;2023-11-22T14:55:19;11.50;51.00
48043;DHT22;33988;47.992;8.820;2023-11-22T14:57:49;11.50;50.90
48043;DHT22;33988;47.992;8.820;2023-11-22T15:00:17;11.50;50.90
48043;DHT22;33988;47.992;8.820;2023-11-22T15:02:47;11.50;51.00
48043;DHT22;33988;47.992;8.820;2023-11-22T15:05:18;11.50;51.00
48043;DHT22;33988;47.992;8.820;2023-11-22T15:07:46;11.50;50.90
48043;DHT22;33988;47.992;8.820;2023-11-22T15:10:13;11.50;50.90
48043;DHT22;33988;47.992;8.820;2023-11-22T15:12:42;11.50;50.90
48043;DHT22;33988;47.992;8.820;2023-11-22T15:15:12;11.50;50.90
48043;DHT22;33988;47.992;8.820;2023-11-22T15:17:40;11.50;50.90
48043;DHT22;33988;47.992;8.820;2023-11-22T15:20:08;11.50;50.80
48043;DHT22;33988;47.992;8.820;2023-11-22T15:22:42;11.50;50.80
48043;DHT22;33988;47.992;8.820;2023-11-22T15:25:14;11.50;50.70
48043;DHT22;33988;47.992;8.820;2023-11-22T15:27:42;11.50;50.70
48043;DHT22;33988;47.992;8.820;2023-11-22T15:30:13;11.50;50.70
48043;DHT22;33988;47.992;8.820;2023-11-22T15:32:40;11.40;50.60
48043;DHT22;33988;47.992;8.820;2023-11-22T15:35:10;11.40;50.60
48043;DHT22;33988;47.992;8.820;2023-11-22T15:37:37;11.40;50.60
48043;DHT22;33988;47.992;8.820;2023-11-22T15:40:07;11.40;50.60
48043;DHT22;33988;47.992;8.820;2023-11-22T15:42:37;11.40;50.50
48043;DHT22;33988;47.992;8.820;2023-11-22T15:45:09;11.40;50.50
48043;DHT22;33988;47.992;8.820;2023-11-22T15:47:36;11.40;50.40
48043;DHT22;33988;47.992;8.820;2023-11-22T15:50:04;11.40;50.40